Time,TemperatureF,DewpointF,PressureIn,WindDirection,WindDirectionDegrees,WindSpeedMPH,WindSpeedGustMPH,Humidity,HourlyPrecipIn,Conditions,Clouds,dailyrainin,SolarRadiationWatts/m^2,SoftwareType,DateUTC
2013-08-07 00:02:00,76.9,70.0,30.03,East,84,4.0,13.0,80,0.00,,,0.00,0,weatherlink.com 1.10,2013-08-07 10:02:00,
2013-08-07 00:17:00,76.9,70.0,30.03,East,88,6.0,10.0,79,0.00,,,0.00,0,weatherlink.com 1.10,2013-08-07 10:17:00,
2013-08-07 00:32:00,76.9,70.0,30.02,SE,124,9.0,11.0,80,0.00,,,0.00,0,weatherlink.com 1.10,2013-08-07 10:32:00,
2013-08-07 00:47:00,76.8,70.0,30.02,East,95,6.0,12.0,80,0.00,,,0.00,0,weatherlink.com 1.10,2013-08-07 10:47:00,
2013-08-07 01:02:00,76.8,71.0,30.02,East,98,4.0,8.0,81,0.00,,,0.00,0,weatherlink.com 1.10,2013-08-07 11:02:00,
2013-08-07 01:18:00,76.6,70.0,30.01,East,81,7.0,9.0,81,0.00,,,0.00,0,weatherlink.com 1.10,2013-08-07 11:18:00,
2013-08-07 01:32:00,76.5,70.0,30.01,East,89,5.0,8.0,80,0.00,,,0.00,0,weatherlink.com 1.10,2013-08-07 11:32:00,
2013-08-07 01:48:00,76.5,70.0,30.01,East,90,4.0,9.0,81,0.00,,,0.00,0,weatherlink.com 1.10,2013-08-07 11:48:00,
2013-08-07 02:03:00,76.4,70.0,30.01,East,90,1.0,8.0,80,0.00,,,0.00,0,weatherlink.com 1.10,2013-08-07 12:03:00,
2013-08-07 02:18:00,76.4,70.0,30.01,ESE,102,7.0,9.0,81,0.00,,,0.00,0,weatherlink.com 1.10,2013-08-07 12:18:00,
2013-08-07 02:33:00,76.4,70.0,30.00,East,80,5.0,9.0,81,0.00,,,0.00,0,weatherlink.com 1.10,2013-08-07 12:33:00,
2013-08-07 02:48:00,76.4,70.0,30.00,ESE,114,7.0,12.0,80,0.00,,,0.00,0,weatherlink.com 1.10,2013-08-07 12:48:00,
2013-08-07 03:03:00,76.4,70.0,30.00,East,90,8.0,11.0,80,0.00,,,0.00,0,weatherlink.com 1.10,2013-08-07 13:03:00,
2013-08-07 03:18:00,76.4,70.0,30.00,East,92,6.0,11.0,80,0.00,,,0.00,0,weatherlink.com 1.10,2013-08-07 13:18:00,
2013-08-07 03:34:00,76.4,70.0,30.00,SE,136,2.0,7.0,81,0.00,,,0.00,0,weatherlink.com 1.10,2013-08-07 13:34:00,
2013-08-07 03:48:00,76.4,70.0,30.00,East,82,4.0,8.0,81,0.00,,,0.00,0,weatherlink.com 1.10,2013-08-07 13:48:00,
2013-08-07 04:04:00,76.4,70.0,30.00,SE,124,9.0,11.0,81,0.00,,,0.00,0,weatherlink.com 1.10,2013-08-07 14:04:00,
2013-08-07 04:19:00,76.3,70.0,30.00,ENE,76,6.0,9.0,80,0.00,,,0.00,0,weatherlink.com 1.10,2013-08-07 14:19:00,
2013-08-07 04:34:00,76.3,69.0,30.00,East,96,3.0,9.0,79,0.00,,,0.00,0,weatherlink.com 1.10,2013-08-07 14:34:00,
2013-08-07 04:49:00,76.3,70.0,30.00,SE,132,3.0,9.0,80,0.00,,,0.00,0,weatherlink.com 1.10,2013-08-07 14:49:00,
2013-08-07 05:04:00,76.3,70.0,30.01,East,88,4.0,10.0,81,0.00,,,0.00,0,weatherlink.com 1.10,2013-08-07 15:04:00,
2013-08-07 05:19:00,76.2,70.0,30.00,East,92,4.0,11.0,80,0.00,,,0.00,0,weatherlink.com 1.10,2013-08-07 15:19:00,
2013-08-07 05:34:00,76.1,70.0,30.01,East,84,5.0,10.0,80,0.00,,,0.00,0,weatherlink.com 1.10,2013-08-07 15:34:00,
2013-08-07 05:49:00,76.1,70.0,30.01,East,85,6.0,8.0,80,0.00,,,0.00,0,weatherlink.com 1.10,2013-08-07 15:49:00,
2013-08-07 06:04:00,76.1,70.0,30.01,ENE,77,5.0,8.0,81,0.00,,,0.00,0,weatherlink.com 1.10,2013-08-07 16:04:00,
2013-08-07 06:19:00,76.1,70.0,30.02,SE,132,6.0,9.0,80,0.00,,,0.00,21,weatherlink.com 1.10,2013-08-07 16:19:00,
2013-08-07 06:34:00,76.7,70.0,30.02,ESE,119,6.0,10.0,80,0.00,,,0.00,70,weatherlink.com 1.10,2013-08-07 16:34:00,
2013-08-07 06:49:00,77.9,71.0,30.02,East,91,5.0,10.0,79,0.00,,,0.00,113,weatherlink.com 1.10,2013-08-07 16:49:00,
2013-08-07 07:04:00,78.7,70.0,30.02,East,97,7.0,11.0,75,0.00,,,0.00,183,weatherlink.com 1.10,2013-08-07 17:04:00,
2013-08-07 07:20:00,79.0,70.0,30.02,East,101,7.0,10.0,75,0.00,,,0.00,253,weatherlink.com 1.10,2013-08-07 17:20:00,
2013-08-07 07:35:00,79.9,70.0,30.03,East,88,7.0,10.0,72,0.00,,,0.00,315,weatherlink.com 1.10,2013-08-07 17:35:00,
2013-08-07 07:50:00,79.7,71.0,30.03,East,97,6.0,9.0,74,0.00,,,0.00,97,weatherlink.com 1.10,2013-08-07 17:50:00,
2013-08-07 08:05:00,79.4,71.0,30.03,ESE,114,7.0,10.0,76,0.00,,,0.00,211,weatherlink.com 1.10,2013-08-07 18:05:00,
2013-08-07 08:20:00,81.4,71.0,30.04,SE,124,7.0,10.0,70,0.00,,,0.00,461,weatherlink.com 1.10,2013-08-07 18:20:00,
2013-08-07 08:35:00,81.5,71.0,30.04,SE,124,5.0,11.0,70,0.00,,,0.00,548,weatherlink.com 1.10,2013-08-07 18:35:00,
2013-08-07 08:50:00,82.1,71.0,30.05,ESE,114,8.0,12.0,68,0.00,,,0.00,585,weatherlink.com 1.10,2013-08-07 18:50:00,
2013-08-07 09:05:00,80.5,71.0,30.05,East,101,7.0,11.0,72,0.00,,,0.00,202,weatherlink.com 1.10,2013-08-07 19:05:00,
2013-08-07 09:20:00,82.2,72.0,30.04,East,87,5.0,12.0,70,0.00,,,0.00,673,weatherlink.com 1.10,2013-08-07 19:20:00,
2013-08-07 09:35:00,83.4,71.0,30.05,East,86,9.0,12.0,67,0.00,,,0.00,722,weatherlink.com 1.10,2013-08-07 19:35:00,
2013-08-07 09:52:00,83.7,72.0,30.05,ENE,68,10.0,11.0,67,0.00,,,0.00,782,weatherlink.com 1.10,2013-08-07 19:52:00,
2013-08-07 10:08:00,84.4,73.0,30.05,ESE,107,2.0,11.0,68,0.00,,,0.00,819,weatherlink.com 1.10,2013-08-07 20:08:00,
2013-08-07 10:23:00,83.6,70.0,30.04,East,89,12.0,12.0,64,0.00,,,0.00,861,weatherlink.com 1.10,2013-08-07 20:23:00,
2013-08-07 10:38:00,84.3,71.0,30.04,East,95,9.0,12.0,64,0.00,,,0.00,888,weatherlink.com 1.10,2013-08-07 20:38:00,
2013-08-07 10:51:00,84.8,72.0,30.04,ESE,114,5.0,12.0,65,0.00,,,0.00,930,weatherlink.com 1.10,2013-08-07 20:51:00,
2013-08-07 11:07:00,84.8,72.0,30.04,ESE,103,5.0,12.0,65,0.00,,,0.00,1023,weatherlink.com 1.10,2013-08-07 21:07:00,
2013-08-07 11:22:00,86.0,73.0,30.04,ENE,69,5.0,13.0,65,0.00,,,0.00,1143,weatherlink.com 1.10,2013-08-07 21:22:00,
2013-08-07 11:37:00,85.4,72.0,30.04,East,88,8.0,11.0,64,0.00,,,0.00,1100,weatherlink.com 1.10,2013-08-07 21:37:00,
2013-08-07 11:52:00,85.7,71.0,30.04,ENE,77,8.0,13.0,62,0.00,,,0.00,991,weatherlink.com 1.10,2013-08-07 21:52:00,
2013-08-07 12:07:00,86.4,72.0,30.04,ENE,64,8.0,12.0,63,0.00,,,0.00,1009,weatherlink.com 1.10,2013-08-07 22:07:00,
2013-08-07 12:21:00,85.4,72.0,30.04,East,99,11.0,12.0,64,0.00,,,0.00,1034,weatherlink.com 1.10,2013-08-07 22:21:00,
2013-08-07 12:36:00,86.2,72.0,30.04,East,81,4.0,12.0,63,0.00,,,0.00,1021,weatherlink.com 1.10,2013-08-07 22:36:00,
2013-08-07 12:52:00,85.9,71.0,30.03,ESE,108,9.0,12.0,61,0.00,,,0.00,1013,weatherlink.com 1.10,2013-08-07 22:52:00,
2013-08-07 13:07:00,85.4,71.0,30.03,East,90,8.0,14.0,62,0.00,,,0.00,1014,weatherlink.com 1.10,2013-08-07 23:07:00,
2013-08-07 13:22:00,86.2,72.0,30.02,East,87,7.0,12.0,62,0.00,,,0.00,1072,weatherlink.com 1.10,2013-08-07 23:22:00,
2013-08-07 13:37:00,86.7,73.0,30.02,ENE,59,7.0,10.0,64,0.00,,,0.00,1158,weatherlink.com 1.10,2013-08-07 23:37:00,
2013-08-07 13:52:00,86.1,72.0,30.01,East,80,7.0,11.0,63,0.00,,,0.00,1000,weatherlink.com 1.10,2013-08-07 23:52:00,
2013-08-07 14:07:00,86.5,72.0,30.01,NNE,32,3.0,11.0,62,0.00,,,0.00,942,weatherlink.com 1.10,2013-08-08 00:07:00,
2013-08-07 14:22:00,84.8,71.0,30.01,ENE,78,6.0,12.0,63,0.00,,,0.00,912,weatherlink.com 1.10,2013-08-08 00:22:00,
2013-08-07 14:37:00,85.1,72.0,30.00,East,91,6.0,11.0,65,0.00,,,0.00,888,weatherlink.com 1.10,2013-08-08 00:37:00,
2013-08-07 14:52:00,85.4,71.0,30.00,East,94,7.0,12.0,62,0.00,,,0.00,849,weatherlink.com 1.10,2013-08-08 00:52:00,
2013-08-07 15:07:00,85.2,71.0,30.00,East,79,7.0,10.0,63,0.00,,,0.00,816,weatherlink.com 1.10,2013-08-08 01:07:00,
2013-08-07 15:22:00,85.3,72.0,30.00,East,86,3.0,10.0,64,0.00,,,0.00,772,weatherlink.com 1.10,2013-08-08 01:22:00,
2013-08-07 15:37:00,85.5,71.0,30.00,NE,51,5.0,11.0,63,0.00,,,0.00,738,weatherlink.com 1.10,2013-08-08 01:37:00,
2013-08-07 15:52:00,84.6,72.0,30.00,NE,34,1.0,10.0,66,0.00,,,0.00,700,weatherlink.com 1.10,2013-08-08 01:52:00,
2013-08-07 16:07:00,83.7,71.0,30.00,East,92,5.0,11.0,65,0.00,,,0.00,190,weatherlink.com 1.10,2013-08-08 02:07:00,
2013-08-07 16:22:00,83.8,71.0,30.00,East,93,4.0,9.0,66,0.00,,,0.00,162,weatherlink.com 1.10,2013-08-08 02:22:00,
2013-08-07 16:37:00,82.0,71.0,30.00,ENE,72,4.0,11.0,70,0.00,,,0.00,105,weatherlink.com 1.10,2013-08-08 02:37:00,
2013-08-07 16:52:00,82.3,71.0,30.00,NE,40,2.0,12.0,68,0.00,,,0.00,536,weatherlink.com 1.10,2013-08-08 02:52:00,
2013-08-07 17:07:00,82.2,71.0,30.00,ESE,110,6.0,11.0,69,0.00,,,0.00,427,weatherlink.com 1.10,2013-08-08 03:07:00,
2013-08-07 17:22:00,80.8,71.0,30.00,NE,55,4.0,9.0,71,0.00,,,0.00,132,weatherlink.com 1.10,2013-08-08 03:22:00,
2013-08-07 17:37:00,80.5,70.0,30.00,NE,48,6.0,11.0,70,0.00,,,0.00,244,weatherlink.com 1.10,2013-08-08 03:37:00,
2013-08-07 17:52:00,80.1,69.0,30.00,East,86,3.0,10.0,69,0.00,,,0.00,51,weatherlink.com 1.10,2013-08-08 03:52:00,
2013-08-07 18:07:00,79.5,69.0,30.00,East,84,7.0,14.0,71,0.00,,,0.00,54,weatherlink.com 1.10,2013-08-08 04:07:00,
2013-08-07 18:22:00,79.1,70.0,30.00,SE,146,1.0,9.0,73,0.00,,,0.00,26,weatherlink.com 1.10,2013-08-08 04:22:00,
2013-08-07 18:37:00,78.8,70.0,30.01,East,84,9.0,9.0,74,0.00,,,0.00,26,weatherlink.com 1.10,2013-08-08 04:37:00,
2013-08-07 18:52:00,78.5,70.0,30.01,East,90,7.0,11.0,75,0.00,,,0.00,16,weatherlink.com 1.10,2013-08-08 04:52:00,
2013-08-07 19:07:00,78.5,70.0,30.01,ESE,114,7.0,11.0,76,0.00,,,0.00,5,weatherlink.com 1.10,2013-08-08 05:07:00,
2013-08-07 19:22:00,78.4,70.0,30.02,ENE,63,5.0,11.0,76,0.00,,,0.00,0,weatherlink.com 1.10,2013-08-08 05:22:00,
2013-08-07 19:37:00,78.2,70.0,30.02,ESE,106,6.0,11.0,76,0.00,,,0.00,0,weatherlink.com 1.10,2013-08-08 05:37:00,
2013-08-07 19:52:00,77.9,70.0,30.02,East,91,4.0,11.0,76,0.00,,,0.00,0,weatherlink.com 1.10,2013-08-08 05:52:00,
2013-08-07 20:07:00,77.8,70.0,30.03,ENE,75,1.0,10.0,77,0.00,,,0.00,0,weatherlink.com 1.10,2013-08-08 06:07:00,
2013-08-07 20:22:00,77.6,70.0,30.03,ESE,119,4.0,13.0,76,0.00,,,0.00,0,weatherlink.com 1.10,2013-08-08 06:22:00,
2013-08-07 20:37:00,77.6,70.0,30.04,East,94,7.0,11.0,76,0.00,,,0.00,0,weatherlink.com 1.10,2013-08-08 06:37:00,
2013-08-07 20:52:00,77.6,70.0,30.04,East,99,9.0,13.0,76,0.00,,,0.00,0,weatherlink.com 1.10,2013-08-08 06:52:00,
2013-08-07 21:07:00,77.7,70.0,30.04,East,92,7.0,12.0,78,0.00,,,0.00,0,weatherlink.com 1.10,2013-08-08 07:07:00,
2013-08-07 21:22:00,77.6,70.0,30.05,ESE,110,11.0,14.0,77,0.00,,,0.00,0,weatherlink.com 1.10,2013-08-08 07:22:00,
2013-08-07 21:37:00,77.5,69.0,30.05,East,92,3.0,13.0,76,0.00,,,0.00,0,weatherlink.com 1.10,2013-08-08 07:37:00,
2013-08-07 21:52:00,77.6,70.0,30.06,ESE,119,12.0,12.0,78,0.00,,,0.00,0,weatherlink.com 1.10,2013-08-08 07:52:00,
2013-08-07 22:07:00,77.6,70.0,30.06,ESE,103,12.0,13.0,78,0.00,,,0.00,0,weatherlink.com 1.10,2013-08-08 08:07:00,
2013-08-07 22:22:00,77.6,70.0,30.06,ESE,119,8.0,12.0,78,0.00,,,0.00,0,weatherlink.com 1.10,2013-08-08 08:22:00,
2013-08-07 22:38:00,77.6,71.0,30.06,ESE,103,7.0,15.0,80,0.00,,,0.00,0,weatherlink.com 1.10,2013-08-08 08:38:00,
2013-08-07 22:52:00,77.3,70.0,30.06,East,101,3.0,13.0,78,0.00,,,0.00,0,weatherlink.com 1.10,2013-08-08 08:52:00,
2013-08-07 23:07:00,77.2,70.0,30.06,East,90,7.0,12.0,79,0.00,,,0.00,0,weatherlink.com 1.10,2013-08-08 09:07:00,
2013-08-07 23:22:00,77.4,70.0,30.06,ESE,114,7.0,13.0,79,0.00,,,0.00,0,weatherlink.com 1.10,2013-08-08 09:22:00,
2013-08-07 23:37:00,77.4,70.0,30.06,East,93,9.0,12.0,78,0.00,,,0.00,0,weatherlink.com 1.10,2013-08-08 09:37:00,
2013-08-07 23:52:00,77.3,70.0,30.05,ESE,105,8.0,12.0,78,0.00,,,0.00,0,weatherlink.com 1.10,2013-08-08 09:52:00,